Saturday, November 17, 2018, 1:42 AM EST
Back to Local

KDDH, Bennington Morse State Airport

Location: Bennington, VT, United States Lat: 42.883
Local Time: 1:42 AM EST ( 6:42 GMT) Lon: -73.25
Time Zone: US/Eastern Elev: 826 ft

Show me the last for .
Show Decoded

2018-11-17 00:54 METAR KDDH 170554Z AUTO VRB05KT 10SM OVC019 03/M02 A2986 RMK AO2 SLP117
                 T00281017 10028 20022 51021 =
2018-11-16 23:54 METAR KDDH 170454Z AUTO VRB06KT 10SM OVC022 03/M02 A2984 RMK AO2 SLP110
                 T00281017 400281022 =
2018-11-16 23:36 METAR KDDH 170436Z AUTO 24007G19KT 200V260 10SM BKN023 OVC034 03/M02 A2984 RMK
                 AO2 T00281017 =
2018-11-16 23:14 METAR KDDH 170414Z AUTO 24008KT 210V280 10SM SCT023 OVC032 03/M02 A2983 RMK AO2
                 T00281017 =
2018-11-16 22:54 METAR KDDH 170354Z AUTO 26008KT 10SM BKN027 OVC036 02/M02 A2981 RMK AO2 SLP103
                 T00221017 =
2018-11-16 21:54 METAR KDDH 170254Z AUTO 26007G16KT 220V300 10SM OVC050 03/M02 A2979 RMK AO2
                 SLP096 T00281022 51018 =
2018-11-16 21:37 METAR KDDH 170237Z AUTO 10SM FEW022 SCT028 OVC050 03/M02 A2979 RMK AO2 T00281022
                 =
2018-11-16 20:54 METAR KDDH 170154Z AUTO 26007G16KT 230V290 10SM BKN026 OVC031 02/M02 A2978 RMK
                 AO2 SLP092 T00221022 =
2018-11-16 19:54 METAR KDDH 170054Z AUTO VRB06G16KT 10SM OVC022 02/M02 A2976 RMK AO2 SLP084
                 T00221017 =
2018-11-16 18:54 METAR KDDH 162354Z AUTO 23007KT 210V280 10SM BKN019 OVC026 02/M01 A2974 RMK AO2
                 SLP077 60000 T00221011 10022 21006 53014 =
2018-11-16 17:54 METAR KDDH 162254Z AUTO VRB06KT 10SM OVC015 02/M02 A2972 RMK AO2 SLP069
                 T00171017 =
2018-11-16 17:28 METAR KDDH 162228Z AUTO VRB04KT 10SM OVC013 01/M02 A2970 RMK AO2 T00111017 =
2018-11-16 17:03 METAR KDDH 162203Z AUTO 22005KT 10SM OVC015 01/M02 A2970 RMK AO2 T00061022 =
2018-11-16 16:54 METAR KDDH 162154Z AUTO VRB05KT 10SM OVC014 01/M02 A2970 RMK AO2 SNE23 SLP064
                 P0000 T00061022 =
2018-11-16 16:42 METAR KDDH 162142Z AUTO 22007KT 10SM OVC014 00/M02 A2970 RMK AO2 SNE23 P0000
                 T00001022 =
2018-11-16 16:30 METAR KDDH 162130Z AUTO 22005KT 10SM OVC015 00/M02 A2969 RMK AO2 SNE23 P0000
                 T00001022 =
2018-11-16 16:16 METAR KDDH 162116Z AUTO 21006KT 3SM -SN BR OVC014 00/M02 A2968 RMK AO2 P0000
                 T00001022 =
2018-11-16 16:06 METAR KDDH 162106Z AUTO 23004KT 1SM -SN OVC013 00/M03 A2968 RMK AO2 P0000
                 T00001028 =
2018-11-16 15:54 METAR KDDH 162054Z AUTO 20004KT 1 3/4SM -SN OVC015 00/M03 A2967 RMK AO2 SNB43
                 SLP053 P0000 60000 T00001028 51015 =
2018-11-16 14:54 METAR KDDH 161954Z AUTO 26004KT 10SM OVC011 M01/M03 A2966 RMK AO2 SLP051
                 T10061033 =
2018-11-16 14:38 METAR KDDH 161938Z AUTO 30004KT 10SM BKN013 OVC021 M01/M03 A2965 RMK AO2
                 T10061033 =
2018-11-16 14:21 METAR KDDH 161921Z AUTO 27005KT 10SM SCT012 OVC023 M01/M03 A2964 RMK AO2
                 T10061033 =
2018-11-16 13:54 METAR KDDH 161854Z AUTO VRB06KT 10SM BKN013 OVC022 M01/M04 A2965 RMK AO2 SLP047
                 T10061039 =
2018-11-16 13:25 METAR KDDH 161825Z AUTO 28007KT 10SM OVC029 00/M04 A2964 RMK AO2 T00001039 =
2018-11-16 12:54 METAR KDDH 161754Z AUTO 00000KT 10SM BKN030 OVC039 01/M04 A2962 RMK AO2 SLP038
                 60012 T00111039 10011 21022 58004 =
2018-11-16 11:54 METAR KDDH 161654Z AUTO VRB04KT 10SM FEW036 OVC046 00/M04 A2963 RMK AO2 SNE06
                 SLP042 P0000 T00001044 =
2018-11-16 11:06 METAR KDDH 161606Z AUTO VRB03KT 7SM FEW009 BKN044 OVC055 M01/M04 A2964 RMK AO2
                 SNE06 P0000 T10111039 =
2018-11-16 10:54 METAR KDDH 161554Z AUTO 36004KT 3SM -SN FEW010 BKN035 OVC055 M01/M04 A2963 RMK
                 AO2 SLP044 P0001 T10111039 =
2018-11-16 10:46 METAR KDDH 161546Z AUTO 01005KT 2 1/2SM -SN SCT010 BKN023 OVC029 M01/M04 A2964
                 RMK AO2 P0001 T10111039 =
2018-11-16 10:29 METAR KDDH 161529Z AUTO VRB03KT 3SM -SN BR FEW006 BKN011 OVC032 M02/M04 A2964
                 RMK AO2 P0000 T10171039 =
2018-11-16 10:22 METAR KDDH 161522Z AUTO 35005KT 2 1/2SM -SN BR FEW005 BKN011 OVC046 M02/M04
                 A2964 RMK AO2 P0000 T10171039 =
2018-11-16 10:12 METAR KDDH 161512Z AUTO 33005KT 1 1/2SM -SN BR FEW005 OVC013 M02/M03 A2964 RMK
                 AO2 P0000 T10171033 =
2018-11-16 09:54 METAR KDDH 161454Z AUTO 32006KT 1/2SM SN FZFG FEW005 OVC011 M02/M03 A2964 RMK
                 AO2 SLP044 P0005 60011 T10171033 50003 =
2018-11-16 09:45 METAR KDDH 161445Z AUTO 34004KT 3/4SM -SN BR FEW005 OVC013 M02/M03 A2963 RMK AO2
                 P0004 T10171033 =
2018-11-16 09:30 METAR KDDH 161430Z AUTO 33004KT 1SM -SN BR SCT009 OVC017 M02/M04 A2964 RMK AO2
                 P0003 T10221039 =
2018-11-16 09:22 METAR KDDH 161422Z AUTO 32003KT 3/4SM -SN BR FEW007 OVC015 M02/M04 A2965 RMK AO2
                 P0002 T10221039 =
2018-11-16 09:06 METAR KDDH 161406Z AUTO 01005KT 1SM -SN BR FEW007 OVC011 M02/M04 A2965 RMK AO2
                 PRESFR P0001 T10221039 =
2018-11-16 08:54 METAR KDDH 161354Z AUTO 34006KT 3/4SM -SN BR SCT004 OVC008 M02/M04 A2967 RMK AO2
                 SLP055 P0005 T10221039 =
2018-11-16 08:10 METAR KDDH 161310Z AUTO VRB03KT 1/2SM -SN FZFG VV006 M02/M04 A2968 RMK AO2 P0002
                 T10171039 =
2018-11-16 07:54 METAR KDDH 161254Z AUTO 29005KT 3/4SM -SN BR SCT007 OVC013 M02/M04 A2967 RMK AO2
                 SLP057 P0001 T10171039 =
2018-11-16 07:40 METAR KDDH 161240Z AUTO 27007G15KT 1 3/4SM -SN BR BKN020 OVC026 M02/M04 A2966
                 RMK AO2 P0000 T10171039 =
2018-11-16 06:54 METAR KDDH 161154Z AUTO VRB03KT 9SM -SN BKN029 OVC039 01/M03 A2963 RMK AO2
                 UPE1059RAB1059E09SNB38 SLP040 P0000 60001 70017 I6000 T00111033 10022 21006
                 55012 =
2018-11-16 06:43 METAR KDDH 161143Z AUTO 32007KT 290V350 9SM -SN BKN029 BKN037 OVC050 01/M04
                 A2962 RMK AO2 UPE1059RAB1059E09SNB38 P0000 T00111039 =
2018-11-16 05:54 METAR KDDH 161054Z AUTO 07012G21KT 020V100 10SM UP OVC065 02/M04 A2960 RMK AO2
                 PK WND 08032/1010 RAE11B40E52UPB11E14B52 SLP031 P0000 T00221039 =
2018-11-16 04:54 METAR KDDH 160954Z AUTO 09014G33KT 040V110 10SM -RA FEW050 OVC075 02/M04 A2962
                 RMK AO2 PK WND 07037/0925 UPB42E49SNB24E34 SLP039 P0000 I1000 T00171039 =
2018-11-16 03:54 METAR KDDH 160854Z AUTO 09015G28KT 040V120 10SM -RA FEW031 BKN060 OVC080 01/M04
                 A2966 RMK AO2 PK WND 11031/0820 RAB13E22B44UPB29E53 SLP052 P0000 60001 T00061044
                 58069 =
2018-11-16 03:05 METAR KDDH 160805Z AUTO 12016G24KT 10SM FEW027 BKN033 OVC060 00/M06 A2975 RMK
                 AO2 T00001056 =
2018-11-16 02:54 METAR KDDH 160754Z AUTO 10009G22KT 060V130 10SM BKN029 BKN037 OVC060 00/M06
                 A2976 RMK AO2 PK WND 09031/0728 UPE54 SLP086 P0000 T00001056 =
2018-11-16 01:54 METAR KDDH 160654Z AUTO 09012G28KT 040V130 9SM UP FEW028 BKN036 OVC070 00/M06
                 A2981 RMK AO2 PK WND 13033/0616 UPB00 SLP104 P0001 T00001056 =

Support USWX by starting your Amazon purchase here.